sensor_id;sensor_type;location;lat;lon;timestamp;pressure;altitude;pressure_sealevel;temperature;humidity
6096;BME280;25081;42.698;23.298;2023-05-07T00:01:52;95496.87;;;10.55;83.81
6096;BME280;25081;42.698;23.298;2023-05-07T00:04:03;95494.31;;;10.51;84.05
6096;BME280;25081;42.698;23.298;2023-05-07T00:06:14;95504.46;;;10.51;84.25
6096;BME280;25081;42.698;23.298;2023-05-07T00:08:24;95495.09;;;10.42;83.91
6096;BME280;25081;42.698;23.298;2023-05-07T00:10:34;95490.77;;;10.41;84.05
6096;BME280;25081;42.698;23.298;2023-05-07T00:12:45;95491.50;;;10.39;84.00
6096;BME280;25081;42.698;23.298;2023-05-07T00:14:58;95494.98;;;10.40;84.29
6096;BME280;25081;42.698;23.298;2023-05-07T00:17:09;95489.58;;;10.30;84.00
6096;BME280;25081;42.698;23.298;2023-05-07T00:19:20;95483.14;;;10.29;84.09
6096;BME280;25081;42.698;23.298;2023-05-07T00:21:30;95486.39;;;10.38;83.96
6096;BME280;25081;42.698;23.298;2023-05-07T00:23:41;95485.95;;;10.41;83.36
6096;BME280;25081;42.698;23.298;2023-05-07T00:25:51;95486.02;;;10.50;83.38
6096;BME280;25081;42.698;23.298;2023-05-07T00:28:02;95485.63;;;10.46;82.75
6096;BME280;25081;42.698;23.298;2023-05-07T00:30:14;95478.97;;;10.46;82.80
6096;BME280;25081;42.698;23.298;2023-05-07T00:32:24;95481.25;;;10.43;82.81
6096;BME280;25081;42.698;23.298;2023-05-07T00:34:35;95486.25;;;10.42;83.00
6096;BME280;25081;42.698;23.298;2023-05-07T00:36:46;95483.78;;;10.47;83.10
6096;BME280;25081;42.698;23.298;2023-05-07T00:38:57;95481.94;;;10.47;82.71
6096;BME280;25081;42.698;23.298;2023-05-07T00:41:07;95487.09;;;10.42;82.80
6096;BME280;25081;42.698;23.298;2023-05-07T00:43:17;95485.27;;;10.36;83.22
6096;BME280;25081;42.698;23.298;2023-05-07T00:45:28;95488.98;;;10.28;83.55
6096;BME280;25081;42.698;23.298;2023-05-07T00:47:39;95497.28;;;10.23;83.85
6096;BME280;25081;42.698;23.298;2023-05-07T00:49:49;95494.03;;;10.14;84.22
6096;BME280;25081;42.698;23.298;2023-05-07T00:52:00;95490.33;;;10.22;84.46
6096;BME280;25081;42.698;23.298;2023-05-07T00:54:11;95499.66;;;10.22;84.24
6096;BME280;25081;42.698;23.298;2023-05-07T00:56:21;95496.47;;;10.22;84.20
6096;BME280;25081;42.698;23.298;2023-05-07T00:58:33;95491.37;;;10.14;84.22
6096;BME280;25081;42.698;23.298;2023-05-07T01:00:43;95495.16;;;10.09;84.39
6096;BME280;25081;42.698;23.298;2023-05-07T01:02:54;95494.86;;;10.08;85.00
6096;BME280;25081;42.698;23.298;2023-05-07T01:05:05;95500.10;;;10.06;85.39
6096;BME280;25081;42.698;23.298;2023-05-07T01:07:16;95495.89;;;10.00;85.21
6096;BME280;25081;42.698;23.298;2023-05-07T01:09:27;95496.72;;;10.01;85.56
6096;BME280;25081;42.698;23.298;2023-05-07T01:11:37;95493.36;;;9.96;85.91
6096;BME280;25081;42.698;23.298;2023-05-07T01:13:48;95495.42;;;9.94;86.69
6096;BME280;25081;42.698;23.298;2023-05-07T01:15:59;95493.96;;;9.98;86.56
6096;BME280;25081;42.698;23.298;2023-05-07T01:18:09;95498.08;;;9.94;86.01
6096;BME280;25081;42.698;23.298;2023-05-07T01:20:20;95503.50;;;9.90;86.68
6096;BME280;25081;42.698;23.298;2023-05-07T01:22:31;95502.17;;;9.84;86.85
6096;BME280;25081;42.698;23.298;2023-05-07T01:24:42;95497.39;;;9.77;87.52
6096;BME280;25081;42.698;23.298;2023-05-07T01:26:53;95495.94;;;9.81;87.11
6096;BME280;25081;42.698;23.298;2023-05-07T01:29:03;95499.12;;;9.80;87.31
6096;BME280;25081;42.698;23.298;2023-05-07T01:31:14;95501.05;;;9.82;87.53
6096;BME280;25081;42.698;23.298;2023-05-07T01:33:24;95494.19;;;9.84;87.21
6096;BME280;25081;42.698;23.298;2023-05-07T01:35:35;95502.17;;;9.84;86.99
6096;BME280;25081;42.698;23.298;2023-05-07T01:37:46;95496.36;;;9.78;87.10
6096;BME280;25081;42.698;23.298;2023-05-07T01:39:56;95497.27;;;9.81;87.21
6096;BME280;25081;42.698;23.298;2023-05-07T01:42:07;95495.94;;;9.87;87.03
6096;BME280;25081;42.698;23.298;2023-05-07T01:44:17;95487.44;;;9.81;86.93
6096;BME280;25081;42.698;23.298;2023-05-07T01:46:28;95479.27;;;9.76;86.90
6096;BME280;25081;42.698;23.298;2023-05-07T01:48:39;95485.30;;;9.74;87.30
6096;BME280;25081;42.698;23.298;2023-05-07T01:50:50;95477.82;;;9.73;87.48
6096;BME280;25081;42.698;23.298;2023-05-07T01:53:00;95481.30;;;9.74;87.17
6096;BME280;25081;42.698;23.298;2023-05-07T01:55:11;95472.70;;;9.72;87.07
6096;BME280;25081;42.698;23.298;2023-05-07T01:57:22;95466.35;;;9.80;86.75
6096;BME280;25081;42.698;23.298;2023-05-07T01:59:32;95470.56;;;9.78;86.51
6096;BME280;25081;42.698;23.298;2023-05-07T02:01:43;95474.13;;;9.74;86.46
6096;BME280;25081;42.698;23.298;2023-05-07T02:03:54;95476.31;;;9.62;86.46
6096;BME280;25081;42.698;23.298;2023-05-07T02:06:05;95472.13;;;9.57;86.40
6096;BME280;25081;42.698;23.298;2023-05-07T02:08:15;95467.20;;;9.60;86.16
6096;BME280;25081;42.698;23.298;2023-05-07T02:10:26;95462.30;;;9.57;86.63
6096;BME280;25081;42.698;23.298;2023-05-07T02:12:36;95463.52;;;9.55;86.73
6096;BME280;25081;42.698;23.298;2023-05-07T02:14:47;95456.89;;;9.48;86.86
6096;BME280;25081;42.698;23.298;2023-05-07T02:16:58;95460.06;;;9.48;86.70
6096;BME280;25081;42.698;23.298;2023-05-07T02:19:08;95456.16;;;9.43;86.59
6096;BME280;25081;42.698;23.298;2023-05-07T02:21:19;95454.95;;;9.46;86.74
6096;BME280;25081;42.698;23.298;2023-05-07T02:23:29;95459.55;;;9.41;87.06
6096;BME280;25081;42.698;23.298;2023-05-07T02:25:40;95457.70;;;9.35;86.84
6096;BME280;25081;42.698;23.298;2023-05-07T02:27:50;95452.41;;;9.29;88.03
6096;BME280;25081;42.698;23.298;2023-05-07T02:30:01;95452.41;;;9.29;88.05
6096;BME280;25081;42.698;23.298;2023-05-07T02:32:12;95455.67;;;9.31;88.37
6096;BME280;25081;42.698;23.298;2023-05-07T02:34:22;95462.92;;;9.26;87.78
6096;BME280;25081;42.698;23.298;2023-05-07T02:36:33;95466.84;;;9.17;87.83
6096;BME280;25081;42.698;23.298;2023-05-07T02:38:44;95457.19;;;9.16;88.31
6096;BME280;25081;42.698;23.298;2023-05-07T02:40:55;95455.75;;;9.07;88.60
6096;BME280;25081;42.698;23.298;2023-05-07T02:43:05;95463.12;;;9.05;88.48
6096;BME280;25081;42.698;23.298;2023-05-07T02:45:16;95470.78;;;8.97;89.39
6096;BME280;25081;42.698;23.298;2023-05-07T02:47:27;95465.89;;;9.01;89.29
6096;BME280;25081;42.698;23.298;2023-05-07T02:49:37;95460.77;;;8.93;89.88
6096;BME280;25081;42.698;23.298;2023-05-07T02:51:48;95460.37;;;8.89;89.44
6096;BME280;25081;42.698;23.298;2023-05-07T02:53:59;95461.07;;;8.80;89.83
6096;BME280;25081;42.698;23.298;2023-05-07T02:56:09;95461.47;;;8.84;89.89
6096;BME280;25081;42.698;23.298;2023-05-07T02:58:20;95463.83;;;8.83;90.07
6096;BME280;25081;42.698;23.298;2023-05-07T03:00:31;95469.45;;;8.84;89.50
6096;BME280;25081;42.698;23.298;2023-05-07T03:02:41;95470.88;;;8.80;89.85
6096;BME280;25081;42.698;23.298;2023-05-07T03:04:52;95484.25;;;8.76;89.83
6096;BME280;25081;42.698;23.298;2023-05-07T03:07:02;95480.57;;;8.77;89.81
6096;BME280;25081;42.698;23.298;2023-05-07T03:09:13;95477.20;;;8.72;89.56
6096;BME280;25081;42.698;23.298;2023-05-07T03:11:24;95477.48;;;8.67;89.92
6096;BME280;25081;42.698;23.298;2023-05-07T03:13:35;95475.77;;;8.70;89.84
6096;BME280;25081;42.698;23.298;2023-05-07T03:15:45;95475.25;;;8.77;89.39
6096;BME280;25081;42.698;23.298;2023-05-07T03:17:56;95485.71;;;8.78;88.87
6096;BME280;25081;42.698;23.298;2023-05-07T03:20:09;95481.67;;;8.65;88.53
6096;BME280;25081;42.698;23.298;2023-05-07T03:22:20;95480.96;;;8.60;88.86
6096;BME280;25081;42.698;23.298;2023-05-07T03:24:31;95482.59;;;8.62;89.32
6096;BME280;25081;42.698;23.298;2023-05-07T03:26:41;95483.92;;;8.68;89.14
6096;BME280;25081;42.698;23.298;2023-05-07T03:28:52;95486.09;;;8.75;88.98
6096;BME280;25081;42.698;23.298;2023-05-07T03:31:02;95492.02;;;8.77;88.44
6096;BME280;25081;42.698;23.298;2023-05-07T03:33:13;95492.64;;;8.73;88.32
6096;BME280;25081;42.698;23.298;2023-05-07T03:35:23;95494.11;;;8.88;88.57
6096;BME280;25081;42.698;23.298;2023-05-07T03:37:34;95498.39;;;8.96;87.94
6096;BME280;25081;42.698;23.298;2023-05-07T03:39:44;95493.52;;;9.00;87.66
6096;BME280;25081;42.698;23.298;2023-05-07T03:41:55;95498.83;;;9.00;87.61
6096;BME280;25081;42.698;23.298;2023-05-07T03:44:06;95498.23;;;9.11;87.58
6096;BME280;25081;42.698;23.298;2023-05-07T03:46:16;95497.10;;;9.09;86.86
6096;BME280;25081;42.698;23.298;2023-05-07T03:48:27;95503.45;;;9.08;87.04
6096;BME280;25081;42.698;23.298;2023-05-07T03:50:37;95506.40;;;9.16;86.92
6096;BME280;25081;42.698;23.298;2023-05-07T03:52:48;95507.94;;;9.14;86.64
6096;BME280;25081;42.698;23.298;2023-05-07T03:54:58;95510.82;;;9.20;86.70
6096;BME280;25081;42.698;23.298;2023-05-07T03:57:09;95509.80;;;9.21;86.58
6096;BME280;25081;42.698;23.298;2023-05-07T03:59:20;95511.22;;;9.23;86.49
6096;BME280;25081;42.698;23.298;2023-05-07T04:01:30;95506.13;;;9.28;86.03
6096;BME280;25081;42.698;23.298;2023-05-07T04:03:41;95514.19;;;9.24;85.53
6096;BME280;25081;42.698;23.298;2023-05-07T04:05:51;95515.53;;;9.31;85.63
6096;BME280;25081;42.698;23.298;2023-05-07T04:08:02;95520.05;;;9.37;84.94
6096;BME280;25081;42.698;23.298;2023-05-07T04:10:13;95529.85;;;9.43;84.65
6096;BME280;25081;42.698;23.298;2023-05-07T04:12:23;95527.91;;;9.54;84.61
6096;BME280;25081;42.698;23.298;2023-05-07T04:14:34;95530.69;;;9.57;84.09
6096;BME280;25081;42.698;23.298;2023-05-07T04:16:45;95537.84;;;9.30;84.61
6096;BME280;25081;42.698;23.298;2023-05-07T04:18:55;95540.78;;;9.24;85.30
6096;BME280;25081;42.698;23.298;2023-05-07T04:21:06;95545.08;;;9.12;86.00
6096;BME280;25081;42.698;23.298;2023-05-07T04:23:16;95545.08;;;9.25;86.60
6096;BME280;25081;42.698;23.298;2023-05-07T04:25:27;95549.92;;;9.39;85.73
6096;BME280;25081;42.698;23.298;2023-05-07T04:27:37;95552.06;;;9.53;85.28
6096;BME280;25081;42.698;23.298;2023-05-07T04:29:48;95552.09;;;9.46;84.83
6096;BME280;25081;42.698;23.298;2023-05-07T04:31:58;95553.83;;;9.56;84.83
6096;BME280;25081;42.698;23.298;2023-05-07T04:34:09;95562.92;;;9.71;85.09
6096;BME280;25081;42.698;23.298;2023-05-07T04:36:19;95558.63;;;9.77;84.55
6096;BME280;25081;42.698;23.298;2023-05-07T04:38:30;95555.55;;;9.86;84.13
6096;BME280;25081;42.698;23.298;2023-05-07T04:40:41;95564.73;;;10.03;83.76
6096;BME280;25081;42.698;23.298;2023-05-07T04:42:52;95565.95;;;10.27;83.42
6096;BME280;25081;42.698;23.298;2023-05-07T04:45:03;95562.86;;;10.37;82.34
6096;BME280;25081;42.698;23.298;2023-05-07T04:47:14;95562.88;;;10.11;83.11
6096;BME280;25081;42.698;23.298;2023-05-07T04:49:24;95560.11;;;10.28;82.78
6096;BME280;25081;42.698;23.298;2023-05-07T04:51:35;95563.13;;;10.96;80.71
6096;BME280;25081;42.698;23.298;2023-05-07T04:53:46;95558.11;;;12.01;77.11
6096;BME280;25081;42.698;23.298;2023-05-07T04:55:59;95554.45;;;13.24;73.84
6096;BME280;25081;42.698;23.298;2023-05-07T04:58:10;95550.13;;;14.32;67.59
6096;BME280;25081;42.698;23.298;2023-05-07T05:00:21;95549.69;;;14.38;66.13
6096;BME280;25081;42.698;23.298;2023-05-07T05:02:32;95544.06;;;15.00;64.97
6096;BME280;25081;42.698;23.298;2023-05-07T05:04:43;95543.30;;;15.45;62.61
6096;BME280;25081;42.698;23.298;2023-05-07T05:06:54;95542.63;;;16.55;60.68
6096;BME280;25081;42.698;23.298;2023-05-07T05:09:05;95542.63;;;16.55;60.68
6096;BME280;25081;42.698;23.298;2023-05-07T05:11:15;95541.40;;;17.07;57.44
6096;BME280;25081;42.698;23.298;2023-05-07T05:13:26;95539.83;;;17.62;55.13
6096;BME280;25081;42.698;23.298;2023-05-07T05:15:37;95536.88;;;17.64;54.65
6096;BME280;25081;42.698;23.298;2023-05-07T05:17:48;95540.90;;;17.61;55.27
6096;BME280;25081;42.698;23.298;2023-05-07T05:19:58;95544.60;;;17.55;55.48
6096;BME280;25081;42.698;23.298;2023-05-07T05:22:09;95545.33;;;16.75;56.92
6096;BME280;25081;42.698;23.298;2023-05-07T05:24:20;95535.16;;;17.01;56.92
6096;BME280;25081;42.698;23.298;2023-05-07T05:26:30;95539.01;;;17.86;55.51
6096;BME280;25081;42.698;23.298;2023-05-07T05:28:41;95535.39;;;18.50;52.98
6096;BME280;25081;42.698;23.298;2023-05-07T05:30:52;95536.41;;;18.36;53.06
6096;BME280;25081;42.698;23.298;2023-05-07T05:33:02;95535.70;;;17.55;54.39
6096;BME280;25081;42.698;23.298;2023-05-07T05:35:13;95545.71;;;18.16;55.01
6096;BME280;25081;42.698;23.298;2023-05-07T05:37:23;95537.95;;;19.32;50.71
6096;BME280;25081;42.698;23.298;2023-05-07T05:39:34;95539.91;;;18.81;51.32
6096;BME280;25081;42.698;23.298;2023-05-07T05:41:45;95544.91;;;17.29;54.80
6096;BME280;25081;42.698;23.298;2023-05-07T05:43:55;95541.47;;;17.66;54.42
6096;BME280;25081;42.698;23.298;2023-05-07T05:46:06;95545.94;;;18.12;54.06
6096;BME280;25081;42.698;23.298;2023-05-07T05:48:16;95542.59;;;19.54;50.56
6096;BME280;25081;42.698;23.298;2023-05-07T05:50:27;95535.10;;;19.89;49.20
6096;BME280;25081;42.698;23.298;2023-05-07T05:52:38;95539.70;;;19.99;48.97
6096;BME280;25081;42.698;23.298;2023-05-07T05:54:48;95540.20;;;19.78;48.71
6096;BME280;25081;42.698;23.298;2023-05-07T05:56:59;95535.81;;;19.44;49.47
6096;BME280;25081;42.698;23.298;2023-05-07T05:59:10;95539.06;;;19.41;49.79
6096;BME280;25081;42.698;23.298;2023-05-07T06:01:21;95537.78;;;19.74;50.03
6096;BME280;25081;42.698;23.298;2023-05-07T06:03:31;95533.44;;;21.37;46.21
6096;BME280;25081;42.698;23.298;2023-05-07T06:05:42;95532.08;;;22.49;43.40
6096;BME280;25081;42.698;23.298;2023-05-07T06:07:53;95536.48;;;22.43;43.45
6096;BME280;25081;42.698;23.298;2023-05-07T06:10:05;95533.98;;;21.36;45.38
6096;BME280;25081;42.698;23.298;2023-05-07T06:12:16;95543.73;;;19.61;48.69
6096;BME280;25081;42.698;23.298;2023-05-07T06:14:27;95536.63;;;20.79;47.83
6096;BME280;25081;42.698;23.298;2023-05-07T06:16:38;95531.30;;;22.15;44.31
6096;BME280;25081;42.698;23.298;2023-05-07T06:18:48;95524.92;;;23.09;42.19
6096;BME280;25081;42.698;23.298;2023-05-07T06:20:59;95526.05;;;24.05;39.70
6096;BME280;25081;42.698;23.298;2023-05-07T06:23:10;95528.80;;;24.37;39.05
6096;BME280;25081;42.698;23.298;2023-05-07T06:25:21;95522.95;;;23.76;40.05
6096;BME280;25081;42.698;23.298;2023-05-07T06:27:31;95529.17;;;22.94;41.71
6096;BME280;25081;42.698;23.298;2023-05-07T06:29:42;95527.72;;;22.51;42.51
6096;BME280;25081;42.698;23.298;2023-05-07T06:31:53;95526.50;;;23.12;41.60
6096;BME280;25081;42.698;23.298;2023-05-07T06:34:04;95516.33;;;23.98;39.52
6096;BME280;25081;42.698;23.298;2023-05-07T06:36:15;95511.05;;;24.83;38.34
6096;BME280;25081;42.698;23.298;2023-05-07T06:38:26;95507.64;;;25.44;36.23
6096;BME280;25081;42.698;23.298;2023-05-07T06:40:36;95515.16;;;25.88;35.65
6096;BME280;25081;42.698;23.298;2023-05-07T06:42:47;95514.31;;;25.13;35.52
6096;BME280;25081;42.698;23.298;2023-05-07T06:44:58;95518.54;;;21.34;43.43
6096;BME280;25081;42.698;23.298;2023-05-07T06:47:08;95507.66;;;23.19;41.02
6096;BME280;25081;42.698;23.298;2023-05-07T06:49:19;95511.02;;;24.56;38.17
6096;BME280;25081;42.698;23.298;2023-05-07T06:51:29;95495.53;;;22.00;42.41
6096;BME280;25081;42.698;23.298;2023-05-07T06:53:40;95508.34;;;21.06;44.93
6096;BME280;25081;42.698;23.298;2023-05-07T06:55:50;95505.13;;;20.94;45.05
6096;BME280;25081;42.698;23.298;2023-05-07T06:58:01;95497.96;;;22.36;42.60
6096;BME280;25081;42.698;23.298;2023-05-07T07:00:14;95491.48;;;23.86;39.59
6096;BME280;25081;42.698;23.298;2023-05-07T07:02:25;95495.78;;;23.71;39.83
6096;BME280;25081;42.698;23.298;2023-05-07T07:04:35;95494.94;;;24.24;37.98
6096;BME280;25081;42.698;23.298;2023-05-07T07:06:46;95499.77;;;22.96;39.71
6096;BME280;25081;42.698;23.298;2023-05-07T07:08:57;95495.91;;;23.02;41.26
6096;BME280;25081;42.698;23.298;2023-05-07T07:11:08;95499.39;;;25.08;37.35
6096;BME280;25081;42.698;23.298;2023-05-07T07:13:18;95486.02;;;25.95;35.35
6096;BME280;25081;42.698;23.298;2023-05-07T07:15:30;95489.55;;;24.82;37.39
6096;BME280;25081;42.698;23.298;2023-05-07T07:17:40;95492.58;;;24.80;37.18
6096;BME280;25081;42.698;23.298;2023-05-07T07:19:51;95484.91;;;25.60;35.56
6096;BME280;25081;42.698;23.298;2023-05-07T07:22:02;95484.59;;;26.20;34.80
6096;BME280;25081;42.698;23.298;2023-05-07T07:24:12;95482.16;;;27.03;33.46
6096;BME280;25081;42.698;23.298;2023-05-07T07:26:23;95475.77;;;27.71;31.84
6096;BME280;25081;42.698;23.298;2023-05-07T07:28:34;95475.84;;;27.85;31.75
6096;BME280;25081;42.698;23.298;2023-05-07T07:30:45;95476.31;;;27.96;31.22
6096;BME280;25081;42.698;23.298;2023-05-07T07:32:56;95472.33;;;27.48;31.83
6096;BME280;25081;42.698;23.298;2023-05-07T07:35:09;95472.66;;;28.24;30.72
6096;BME280;25081;42.698;23.298;2023-05-07T07:37:20;95476.05;;;28.21;30.83
6096;BME280;25081;42.698;23.298;2023-05-07T07:39:31;95477.33;;;28.64;30.02
6096;BME280;25081;42.698;23.298;2023-05-07T07:41:41;95477.09;;;29.10;29.40
6096;BME280;25081;42.698;23.298;2023-05-07T07:43:52;95482.73;;;29.58;29.05
6096;BME280;25081;42.698;23.298;2023-05-07T07:46:03;95482.27;;;29.26;29.68
6096;BME280;25081;42.698;23.298;2023-05-07T07:48:14;95481.80;;;29.24;29.30
6096;BME280;25081;42.698;23.298;2023-05-07T07:50:25;95486.78;;;28.93;29.72
6096;BME280;25081;42.698;23.298;2023-05-07T07:52:35;95486.58;;;27.47;31.95
6096;BME280;25081;42.698;23.298;2023-05-07T07:54:46;95486.79;;;28.20;30.72
6096;BME280;25081;42.698;23.298;2023-05-07T07:56:58;95487.22;;;28.80;29.58
6096;BME280;25081;42.698;23.298;2023-05-07T07:59:08;95487.64;;;28.44;30.52
6096;BME280;25081;42.698;23.298;2023-05-07T08:01:19;95491.19;;;27.58;30.17
6096;BME280;25081;42.698;23.298;2023-05-07T08:03:30;95480.11;;;25.54;34.38
6096;BME280;25081;42.698;23.298;2023-05-07T08:05:41;95480.79;;;25.74;34.32
6096;BME280;25081;42.698;23.298;2023-05-07T08:07:51;95476.11;;;26.64;33.40
6096;BME280;25081;42.698;23.298;2023-05-07T08:10:02;95479.55;;;27.26;32.78
6096;BME280;25081;42.698;23.298;2023-05-07T08:12:13;95469.73;;;27.80;31.51
6096;BME280;25081;42.698;23.298;2023-05-07T08:14:24;95472.19;;;28.86;29.65
6096;BME280;25081;42.698;23.298;2023-05-07T08:16:35;95468.73;;;28.10;30.53
6096;BME280;25081;42.698;23.298;2023-05-07T08:18:45;95472.90;;;28.16;30.34
6096;BME280;25081;42.698;23.298;2023-05-07T08:20:56;95468.27;;;27.82;30.95
6096;BME280;25081;42.698;23.298;2023-05-07T08:23:06;95471.64;;;26.57;32.55
6096;BME280;25081;42.698;23.298;2023-05-07T08:25:17;95470.14;;;25.61;34.64
6096;BME280;25081;42.698;23.298;2023-05-07T08:27:28;95473.20;;;25.09;36.02
6096;BME280;25081;42.698;23.298;2023-05-07T08:29:38;95464.38;;;24.85;35.54
6096;BME280;25081;42.698;23.298;2023-05-07T08:31:49;95470.38;;;25.62;34.92
6096;BME280;25081;42.698;23.298;2023-05-07T08:34:00;95460.36;;;27.18;32.42
6096;BME280;25081;42.698;23.298;2023-05-07T08:36:11;95459.66;;;28.36;30.21
6096;BME280;25081;42.698;23.298;2023-05-07T08:38:21;95463.17;;;29.00;29.03
6096;BME280;25081;42.698;23.298;2023-05-07T08:40:33;95455.23;;;29.73;28.26
6096;BME280;25081;42.698;23.298;2023-05-07T08:42:43;95453.59;;;30.13;26.97
6096;BME280;25081;42.698;23.298;2023-05-07T08:44:53;95450.05;;;30.19;26.95
6096;BME280;25081;42.698;23.298;2023-05-07T08:47:05;95447.77;;;29.94;25.77
6096;BME280;25081;42.698;23.298;2023-05-07T08:49:14;95453.04;;;28.84;27.87
6096;BME280;25081;42.698;23.298;2023-05-07T08:51:25;95458.48;;;26.67;30.87
6096;BME280;25081;42.698;23.298;2023-05-07T08:53:36;95453.55;;;25.71;32.36
6096;BME280;25081;42.698;23.298;2023-05-07T08:55:47;95455.69;;;24.55;33.64
6096;BME280;25081;42.698;23.298;2023-05-07T08:57:58;95444.44;;;26.29;32.15
6096;BME280;25081;42.698;23.298;2023-05-07T09:00:10;95437.78;;;28.01;28.76
6096;BME280;25081;42.698;23.298;2023-05-07T09:02:21;95433.46;;;29.38;26.46
6096;BME280;25081;42.698;23.298;2023-05-07T09:04:31;95430.14;;;30.22;25.57
6096;BME280;25081;42.698;23.298;2023-05-07T09:06:42;95425.12;;;30.03;25.96
6096;BME280;25081;42.698;23.298;2023-05-07T09:08:53;95430.64;;;29.11;27.05
6096;BME280;25081;42.698;23.298;2023-05-07T09:11:04;95431.42;;;27.77;29.34
6096;BME280;25081;42.698;23.298;2023-05-07T09:13:14;95424.34;;;27.76;29.24
6096;BME280;25081;42.698;23.298;2023-05-07T09:15:25;95418.70;;;29.22;27.60
6096;BME280;25081;42.698;23.298;2023-05-07T09:17:36;95421.20;;;28.53;28.56
6096;BME280;25081;42.698;23.298;2023-05-07T09:19:47;95416.53;;;28.21;29.22
6096;BME280;25081;42.698;23.298;2023-05-07T09:22:01;95414.24;;;27.22;30.51
6096;BME280;25081;42.698;23.298;2023-05-07T09:24:12;95416.97;;;26.65;31.23
6096;BME280;25081;42.698;23.298;2023-05-07T09:26:23;95418.91;;;25.80;31.51
6096;BME280;25081;42.698;23.298;2023-05-07T09:28:34;95413.94;;;27.84;29.74
6096;BME280;25081;42.698;23.298;2023-05-07T09:30:44;95408.91;;;28.27;27.94
6096;BME280;25081;42.698;23.298;2023-05-07T09:32:56;95409.06;;;28.48;27.93
6096;BME280;25081;42.698;23.298;2023-05-07T09:35:10;95403.33;;;29.50;26.63
6096;BME280;25081;42.698;23.298;2023-05-07T09:37:21;95400.02;;;30.32;26.11
6096;BME280;25081;42.698;23.298;2023-05-07T09:39:41;95401.80;;;29.47;26.18
6096;BME280;25081;42.698;23.298;2023-05-07T09:41:51;95400.17;;;28.89;26.64
6096;BME280;25081;42.698;23.298;2023-05-07T09:44:03;95403.28;;;29.08;25.57
6096;BME280;25081;42.698;23.298;2023-05-07T09:46:14;95399.21;;;29.50;24.61
6096;BME280;25081;42.698;23.298;2023-05-07T09:48:25;95396.29;;;29.88;24.58
6096;BME280;25081;42.698;23.298;2023-05-07T09:50:36;95394.76;;;29.73;25.46
6096;BME280;25081;42.698;23.298;2023-05-07T09:52:47;95398.77;;;25.76;29.23
6096;BME280;25081;42.698;23.298;2023-05-07T09:54:58;95390.52;;;26.21;29.39
6096;BME280;25081;42.698;23.298;2023-05-07T09:57:09;95386.98;;;26.80;28.99
6096;BME280;25081;42.698;23.298;2023-05-07T09:59:20;95383.23;;;27.68;28.07
6096;BME280;25081;42.698;23.298;2023-05-07T10:01:31;95388.20;;;25.94;29.02
6096;BME280;25081;42.698;23.298;2023-05-07T10:03:42;95389.29;;;25.26;30.40
6096;BME280;25081;42.698;23.298;2023-05-07T10:05:52;95381.87;;;26.96;29.52
6096;BME280;25081;42.698;23.298;2023-05-07T10:08:03;95382.22;;;28.92;25.35
6096;BME280;25081;42.698;23.298;2023-05-07T10:10:15;95374.59;;;29.75;25.23
6096;BME280;25081;42.698;23.298;2023-05-07T10:12:25;95374.09;;;30.33;24.09
6096;BME280;25081;42.698;23.298;2023-05-07T10:14:36;95379.31;;;30.07;24.14
6096;BME280;25081;42.698;23.298;2023-05-07T10:16:46;95102.38;;;28.12;24.33
6096;BME280;25081;42.698;23.298;2023-05-07T10:18:57;95373.39;;;26.77;27.35
6096;BME280;25081;42.698;23.298;2023-05-07T10:21:11;95373.22;;;28.21;26.06
6096;BME280;25081;42.698;23.298;2023-05-07T10:23:22;95368.14;;;29.44;25.16
6096;BME280;25081;42.698;23.298;2023-05-07T10:25:31;95360.59;;;30.52;24.42
6096;BME280;25081;42.698;23.298;2023-05-07T10:27:41;95352.35;;;30.83;22.91
6096;BME280;25081;42.698;23.298;2023-05-07T10:29:55;95350.66;;;29.48;23.69
6096;BME280;25081;42.698;23.298;2023-05-07T10:32:14;95349.98;;;29.51;24.37
6096;BME280;25081;42.698;23.298;2023-05-07T10:34:24;95353.82;;;28.58;25.34
6096;BME280;25081;42.698;23.298;2023-05-07T10:36:34;95350.83;;;27.78;25.83
6096;BME280;25081;42.698;23.298;2023-05-07T10:38:45;95348.92;;;27.27;26.49
6096;BME280;25081;42.698;23.298;2023-05-07T10:40:56;95347.69;;;25.43;28.51
6096;BME280;25081;42.698;23.298;2023-05-07T10:43:06;95339.52;;;27.22;26.67
6096;BME280;25081;42.698;23.298;2023-05-07T10:45:17;95342.90;;;27.94;25.73
6096;BME280;25081;42.698;23.298;2023-05-07T10:47:28;95342.52;;;27.89;26.17
6096;BME280;25081;42.698;23.298;2023-05-07T10:52:15;95340.88;;;27.88;26.36
6096;BME280;25081;42.698;23.298;2023-05-07T10:54:26;95341.77;;;26.45;26.83
6096;BME280;25081;42.698;23.298;2023-05-07T10:56:36;95338.23;;;25.16;29.01
6096;BME280;25081;42.698;23.298;2023-05-07T10:58:47;95338.56;;;25.81;28.34
6096;BME280;25081;42.698;23.298;2023-05-07T11:00:58;95331.91;;;25.62;29.40
6096;BME280;25081;42.698;23.298;2023-05-07T11:03:09;95330.29;;;25.84;28.73
6096;BME280;25081;42.698;23.298;2023-05-07T11:05:22;95333.22;;;25.76;28.43
6096;BME280;25081;42.698;23.298;2023-05-07T11:07:33;95343.03;;;24.16;30.61
6096;BME280;25081;42.698;23.298;2023-05-07T11:10:00;95343.87;;;23.70;31.71
6096;BME280;25081;42.698;23.298;2023-05-07T11:12:10;95335.75;;;24.80;30.49
6096;BME280;25081;42.698;23.298;2023-05-07T11:14:45;95331.98;;;25.26;29.39
6096;BME280;25081;42.698;23.298;2023-05-07T11:17:02;95336.28;;;24.14;30.74
6096;BME280;25081;42.698;23.298;2023-05-07T11:19:12;95341.34;;;23.06;31.90
6096;BME280;25081;42.698;23.298;2023-05-07T11:21:34;95331.28;;;24.05;31.00
6096;BME280;25081;42.698;23.298;2023-05-07T11:24:03;95326.45;;;24.81;30.03
6096;BME280;25081;42.698;23.298;2023-05-07T11:26:14;95319.08;;;25.52;28.48
6096;BME280;25081;42.698;23.298;2023-05-07T11:28:24;95315.95;;;26.29;28.08
6096;BME280;25081;42.698;23.298;2023-05-07T11:30:37;95314.98;;;26.53;26.77
6096;BME280;25081;42.698;23.298;2023-05-07T11:32:47;95307.34;;;26.53;26.09
6096;BME280;25081;42.698;23.298;2023-05-07T11:34:59;95309.38;;;26.59;26.35
6096;BME280;25081;42.698;23.298;2023-05-07T11:37:09;95307.31;;;26.81;25.34
6096;BME280;25081;42.698;23.298;2023-05-07T11:39:26;95309.33;;;26.78;25.54